sensor_id;sensor_type;location;lat;lon;timestamp;P1;durP1;ratioP1;P2;durP2;ratioP2
7887;SDS011;3989;48.810;9.208;2023-06-14T00:02:14;4.47;;;4.07;;
7887;SDS011;3989;48.810;9.208;2023-06-14T00:04:41;4.30;;;4.00;;
7887;SDS011;3989;48.810;9.208;2023-06-14T00:07:08;4.23;;;3.90;;
7887;SDS011;3989;48.810;9.208;2023-06-14T00:09:35;4.53;;;4.13;;
7887;SDS011;3989;48.810;9.208;2023-06-14T00:12:04;4.80;;;4.40;;
7887;SDS011;3989;48.810;9.208;2023-06-14T00:14:33;4.33;;;3.93;;
7887;SDS011;3989;48.810;9.208;2023-06-14T00:17:00;4.73;;;4.33;;
7887;SDS011;3989;48.810;9.208;2023-06-14T00:19:27;4.97;;;4.50;;
7887;SDS011;3989;48.810;9.208;2023-06-14T00:21:55;4.57;;;4.20;;
7887;SDS011;3989;48.810;9.208;2023-06-14T00:24:22;4.43;;;4.10;;
7887;SDS011;3989;48.810;9.208;2023-06-14T00:26:49;4.80;;;4.40;;
7887;SDS011;3989;48.810;9.208;2023-06-14T00:29:17;4.20;;;3.90;;
7887;SDS011;3989;48.810;9.208;2023-06-14T00:31:44;4.27;;;3.87;;
7887;SDS011;3989;48.810;9.208;2023-06-14T00:34:10;4.17;;;3.87;;
7887;SDS011;3989;48.810;9.208;2023-06-14T00:36:37;7.70;;;3.93;;
7887;SDS011;3989;48.810;9.208;2023-06-14T00:39:03;4.07;;;3.77;;
7887;SDS011;3989;48.810;9.208;2023-06-14T00:41:30;4.27;;;3.97;;
7887;SDS011;3989;48.810;9.208;2023-06-14T00:43:56;4.37;;;3.97;;
7887;SDS011;3989;48.810;9.208;2023-06-14T00:46:26;4.63;;;4.20;;
7887;SDS011;3989;48.810;9.208;2023-06-14T00:48:53;5.90;;;3.73;;
7887;SDS011;3989;48.810;9.208;2023-06-14T00:51:21;4.80;;;4.40;;
7887;SDS011;3989;48.810;9.208;2023-06-14T00:53:48;4.00;;;3.70;;
7887;SDS011;3989;48.810;9.208;2023-06-14T00:56:15;3.93;;;3.70;;
7887;SDS011;3989;48.810;9.208;2023-06-14T00:58:45;3.93;;;3.63;;
7887;SDS011;3989;48.810;9.208;2023-06-14T01:01:12;4.43;;;4.03;;
7887;SDS011;3989;48.810;9.208;2023-06-14T01:03:40;4.10;;;3.80;;
7887;SDS011;3989;48.810;9.208;2023-06-14T01:06:10;4.50;;;4.10;;
7887;SDS011;3989;48.810;9.208;2023-06-14T01:08:54;8.50;;;4.10;;
7887;SDS011;3989;48.810;9.208;2023-06-14T01:11:28;4.23;;;3.93;;
7887;SDS011;3989;48.810;9.208;2023-06-14T01:13:59;4.50;;;4.20;;
7887;SDS011;3989;48.810;9.208;2023-06-14T01:16:28;4.73;;;4.33;;
7887;SDS011;3989;48.810;9.208;2023-06-14T01:18:57;4.50;;;3.93;;
7887;SDS011;3989;48.810;9.208;2023-06-14T01:21:25;5.17;;;4.00;;
7887;SDS011;3989;48.810;9.208;2023-06-14T01:23:54;5.03;;;4.40;;
7887;SDS011;3989;48.810;9.208;2023-06-14T01:26:21;5.73;;;4.73;;
7887;SDS011;3989;48.810;9.208;2023-06-14T01:28:49;8.13;;;4.53;;
7887;SDS011;3989;48.810;9.208;2023-06-14T01:31:18;4.40;;;3.93;;
7887;SDS011;3989;48.810;9.208;2023-06-14T01:33:46;4.60;;;4.20;;
7887;SDS011;3989;48.810;9.208;2023-06-14T01:36:14;4.53;;;4.23;;
7887;SDS011;3989;48.810;9.208;2023-06-14T01:38:42;7.10;;;4.37;;
7887;SDS011;3989;48.810;9.208;2023-06-14T01:41:12;4.23;;;3.93;;
7887;SDS011;3989;48.810;9.208;2023-06-14T01:43:40;3.97;;;3.67;;
7887;SDS011;3989;48.810;9.208;2023-06-14T01:46:08;5.33;;;4.77;;
7887;SDS011;3989;48.810;9.208;2023-06-14T01:48:37;4.07;;;3.77;;
7887;SDS011;3989;48.810;9.208;2023-06-14T01:51:03;4.53;;;4.23;;
7887;SDS011;3989;48.810;9.208;2023-06-14T01:53:30;4.50;;;4.20;;
7887;SDS011;3989;48.810;9.208;2023-06-14T01:55:57;5.47;;;4.40;;
7887;SDS011;3989;48.810;9.208;2023-06-14T01:58:25;4.67;;;4.27;;
7887;SDS011;3989;48.810;9.208;2023-06-14T02:00:52;4.60;;;4.20;;
7887;SDS011;3989;48.810;9.208;2023-06-14T02:03:21;4.67;;;4.27;;
7887;SDS011;3989;48.810;9.208;2023-06-14T02:05:48;6.93;;;4.13;;
7887;SDS011;3989;48.810;9.208;2023-06-14T02:08:15;4.27;;;3.97;;
7887;SDS011;3989;48.810;9.208;2023-06-14T02:10:41;4.13;;;3.80;;
7887;SDS011;3989;48.810;9.208;2023-06-14T02:13:08;4.73;;;4.37;;
7887;SDS011;3989;48.810;9.208;2023-06-14T02:15:36;4.50;;;4.10;;
7887;SDS011;3989;48.810;9.208;2023-06-14T02:18:08;5.03;;;4.63;;
7887;SDS011;3989;48.810;9.208;2023-06-14T02:20:36;4.70;;;4.30;;
7887;SDS011;3989;48.810;9.208;2023-06-14T02:23:04;6.50;;;4.27;;
7887;SDS011;3989;48.810;9.208;2023-06-14T02:25:32;4.73;;;4.30;;
7887;SDS011;3989;48.810;9.208;2023-06-14T02:27:59;4.90;;;4.53;;
7887;SDS011;3989;48.810;9.208;2023-06-14T02:30:26;4.40;;;3.77;;
7887;SDS011;3989;48.810;9.208;2023-06-14T02:32:54;4.50;;;4.10;;
7887;SDS011;3989;48.810;9.208;2023-06-14T02:35:21;5.03;;;4.00;;
7887;SDS011;3989;48.810;9.208;2023-06-14T02:37:51;4.47;;;4.00;;
7887;SDS011;3989;48.810;9.208;2023-06-14T02:40:18;5.63;;;4.70;;
7887;SDS011;3989;48.810;9.208;2023-06-14T02:42:45;4.30;;;4.00;;
7887;SDS011;3989;48.810;9.208;2023-06-14T02:45:11;4.83;;;4.37;;
7887;SDS011;3989;48.810;9.208;2023-06-14T02:47:38;5.00;;;4.50;;
7887;SDS011;3989;48.810;9.208;2023-06-14T02:50:07;5.67;;;4.30;;
7887;SDS011;3989;48.810;9.208;2023-06-14T02:52:34;4.20;;;3.90;;
7887;SDS011;3989;48.810;9.208;2023-06-14T02:55:01;4.47;;;3.90;;
7887;SDS011;3989;48.810;9.208;2023-06-14T02:57:28;4.70;;;4.30;;
7887;SDS011;3989;48.810;9.208;2023-06-14T02:59:54;5.50;;;4.30;;
7887;SDS011;3989;48.810;9.208;2023-06-14T03:02:21;4.47;;;4.07;;
7887;SDS011;3989;48.810;9.208;2023-06-14T03:04:48;4.70;;;4.30;;
7887;SDS011;3989;48.810;9.208;2023-06-14T03:07:17;5.40;;;4.17;;
7887;SDS011;3989;48.810;9.208;2023-06-14T03:09:45;4.50;;;3.97;;
7887;SDS011;3989;48.810;9.208;2023-06-14T03:12:13;4.60;;;4.17;;
7887;SDS011;3989;48.810;9.208;2023-06-14T03:14:41;4.57;;;4.03;;
7887;SDS011;3989;48.810;9.208;2023-06-14T03:17:10;5.97;;;4.40;;
7887;SDS011;3989;48.810;9.208;2023-06-14T03:19:37;5.83;;;4.57;;
7887;SDS011;3989;48.810;9.208;2023-06-14T03:22:06;4.60;;;4.17;;
7887;SDS011;3989;48.810;9.208;2023-06-14T03:24:34;4.00;;;3.70;;
7887;SDS011;3989;48.810;9.208;2023-06-14T03:27:01;4.87;;;4.47;;
7887;SDS011;3989;48.810;9.208;2023-06-14T03:29:28;4.40;;;4.00;;
7887;SDS011;3989;48.810;9.208;2023-06-14T03:31:56;4.90;;;4.50;;
7887;SDS011;3989;48.810;9.208;2023-06-14T03:34:24;5.40;;;4.07;;
7887;SDS011;3989;48.810;9.208;2023-06-14T03:36:51;4.73;;;4.37;;
7887;SDS011;3989;48.810;9.208;2023-06-14T03:39:18;4.53;;;4.13;;
7887;SDS011;3989;48.810;9.208;2023-06-14T03:41:46;5.20;;;4.80;;
7887;SDS011;3989;48.810;9.208;2023-06-14T03:44:14;6.93;;;5.10;;
7887;SDS011;3989;48.810;9.208;2023-06-14T03:46:42;5.20;;;4.80;;
7887;SDS011;3989;48.810;9.208;2023-06-14T03:49:08;5.40;;;4.90;;
7887;SDS011;3989;48.810;9.208;2023-06-14T03:51:36;5.37;;;4.63;;
7887;SDS011;3989;48.810;9.208;2023-06-14T03:54:02;6.77;;;5.13;;
7887;SDS011;3989;48.810;9.208;2023-06-14T03:56:29;8.07;;;4.93;;
7887;SDS011;3989;48.810;9.208;2023-06-14T03:58:57;5.30;;;4.80;;
7887;SDS011;3989;48.810;9.208;2023-06-14T04:01:24;5.13;;;4.63;;
7887;SDS011;3989;48.810;9.208;2023-06-14T04:03:55;6.33;;;5.03;;
7887;SDS011;3989;48.810;9.208;2023-06-14T04:06:22;4.97;;;4.53;;
7887;SDS011;3989;48.810;9.208;2023-06-14T04:08:50;5.77;;;4.63;;
7887;SDS011;3989;48.810;9.208;2023-06-14T04:11:17;6.37;;;5.37;;
7887;SDS011;3989;48.810;9.208;2023-06-14T04:13:44;9.00;;;4.63;;
7887;SDS011;3989;48.810;9.208;2023-06-14T04:16:13;4.87;;;4.57;;
7887;SDS011;3989;48.810;9.208;2023-06-14T04:18:40;5.57;;;5.07;;
7887;SDS011;3989;48.810;9.208;2023-06-14T04:21:06;5.63;;;5.13;;
7887;SDS011;3989;48.810;9.208;2023-06-14T04:23:33;4.83;;;4.43;;
7887;SDS011;3989;48.810;9.208;2023-06-14T04:26:00;5.43;;;4.93;;
7887;SDS011;3989;48.810;9.208;2023-06-14T04:28:27;6.13;;;4.90;;
7887;SDS011;3989;48.810;9.208;2023-06-14T04:30:54;5.10;;;4.60;;
7887;SDS011;3989;48.810;9.208;2023-06-14T04:33:23;6.03;;;4.93;;
7887;SDS011;3989;48.810;9.208;2023-06-14T04:35:50;6.70;;;5.57;;
7887;SDS011;3989;48.810;9.208;2023-06-14T04:38:18;5.30;;;4.83;;
7887;SDS011;3989;48.810;9.208;2023-06-14T04:40:50;5.10;;;4.70;;
7887;SDS011;3989;48.810;9.208;2023-06-14T04:43:18;4.83;;;4.50;;
7887;SDS011;3989;48.810;9.208;2023-06-14T04:45:50;6.20;;;5.37;;
7887;SDS011;3989;48.810;9.208;2023-06-14T04:48:17;5.20;;;4.60;;
7887;SDS011;3989;48.810;9.208;2023-06-14T04:50:47;8.03;;;5.43;;
7887;SDS011;3989;48.810;9.208;2023-06-14T04:53:17;6.03;;;5.17;;
7887;SDS011;3989;48.810;9.208;2023-06-14T04:55:48;7.50;;;5.63;;
7887;SDS011;3989;48.810;9.208;2023-06-14T04:58:16;5.77;;;4.77;;
7887;SDS011;3989;48.810;9.208;2023-06-14T05:00:45;7.10;;;5.87;;
7887;SDS011;3989;48.810;9.208;2023-06-14T05:03:12;6.00;;;4.97;;
7887;SDS011;3989;48.810;9.208;2023-06-14T05:05:39;6.27;;;5.00;;
7887;SDS011;3989;48.810;9.208;2023-06-14T05:08:08;5.50;;;5.10;;
7887;SDS011;3989;48.810;9.208;2023-06-14T05:10:35;7.47;;;5.27;;
7887;SDS011;3989;48.810;9.208;2023-06-14T05:13:04;7.30;;;5.20;;
7887;SDS011;3989;48.810;9.208;2023-06-14T05:15:35;6.00;;;5.47;;
7887;SDS011;3989;48.810;9.208;2023-06-14T05:18:10;6.17;;;5.23;;
7887;SDS011;3989;48.810;9.208;2023-06-14T05:20:39;5.33;;;4.83;;
7887;SDS011;3989;48.810;9.208;2023-06-14T05:23:08;5.10;;;4.70;;
7887;SDS011;3989;48.810;9.208;2023-06-14T05:25:39;7.20;;;4.40;;
7887;SDS011;3989;48.810;9.208;2023-06-14T05:28:07;7.20;;;4.50;;
7887;SDS011;3989;48.810;9.208;2023-06-14T05:30:34;5.73;;;4.57;;
7887;SDS011;3989;48.810;9.208;2023-06-14T05:33:06;7.43;;;5.80;;
7887;SDS011;3989;48.810;9.208;2023-06-14T05:35:33;7.80;;;5.83;;
7887;SDS011;3989;48.810;9.208;2023-06-14T05:38:00;6.30;;;4.93;;
7887;SDS011;3989;48.810;9.208;2023-06-14T05:40:30;5.03;;;4.53;;
7887;SDS011;3989;48.810;9.208;2023-06-14T05:42:57;5.17;;;4.60;;
7887;SDS011;3989;48.810;9.208;2023-06-14T05:45:24;5.27;;;4.77;;
7887;SDS011;3989;48.810;9.208;2023-06-14T05:47:51;6.80;;;4.67;;
7887;SDS011;3989;48.810;9.208;2023-06-14T05:50:19;6.90;;;4.97;;
7887;SDS011;3989;48.810;9.208;2023-06-14T05:52:46;6.53;;;4.87;;
7887;SDS011;3989;48.810;9.208;2023-06-14T05:55:13;8.00;;;4.93;;
7887;SDS011;3989;48.810;9.208;2023-06-14T05:58:07;4.97;;;4.67;;
7887;SDS011;3989;48.810;9.208;2023-06-14T06:00:35;6.77;;;4.97;;
7887;SDS011;3989;48.810;9.208;2023-06-14T06:03:03;6.20;;;4.40;;
7887;SDS011;3989;48.810;9.208;2023-06-14T06:05:30;5.30;;;4.80;;
7887;SDS011;3989;48.810;9.208;2023-06-14T06:07:57;10.83;;;4.87;;
7887;SDS011;3989;48.810;9.208;2023-06-14T06:10:23;4.90;;;4.50;;
7887;SDS011;3989;48.810;9.208;2023-06-14T06:12:52;5.90;;;5.40;;
7887;SDS011;3989;48.810;9.208;2023-06-14T06:15:19;6.57;;;4.73;;
7887;SDS011;3989;48.810;9.208;2023-06-14T06:17:46;5.35;;;4.90;;
7887;SDS011;3989;48.810;9.208;2023-06-14T06:20:13;8.63;;;5.45;;
7887;SDS011;3989;48.810;9.208;2023-06-14T06:22:39;5.35;;;4.90;;
7887;SDS011;3989;48.810;9.208;2023-06-14T06:25:07;7.30;;;4.60;;
7887;SDS011;3989;48.810;9.208;2023-06-14T06:27:34;6.30;;;4.22;;
7887;SDS011;3989;48.810;9.208;2023-06-14T06:30:04;5.85;;;5.35;;
7887;SDS011;3989;48.810;9.208;2023-06-14T06:32:32;4.90;;;4.40;;
7887;SDS011;3989;48.810;9.208;2023-06-14T06:34:59;4.70;;;4.30;;
7887;SDS011;3989;48.810;9.208;2023-06-14T06:37:26;5.75;;;4.32;;
7887;SDS011;3989;48.810;9.208;2023-06-14T06:39:52;7.07;;;4.07;;
7887;SDS011;3989;48.810;9.208;2023-06-14T06:42:19;5.47;;;3.88;;
7887;SDS011;3989;48.810;9.208;2023-06-14T06:44:47;4.05;;;3.75;;
7887;SDS011;3989;48.810;9.208;2023-06-14T06:47:16;4.15;;;3.92;;
7887;SDS011;3989;48.810;9.208;2023-06-14T06:49:43;4.47;;;3.95;;
7887;SDS011;3989;48.810;9.208;2023-06-14T06:52:13;4.28;;;3.80;;
7887;SDS011;3989;48.810;9.208;2023-06-14T06:54:40;5.85;;;4.57;;
7887;SDS011;3989;48.810;9.208;2023-06-14T06:57:07;4.10;;;3.80;;
7887;SDS011;3989;48.810;9.208;2023-06-14T06:59:35;4.00;;;3.70;;
7887;SDS011;3989;48.810;9.208;2023-06-14T07:02:03;5.72;;;4.40;;
7887;SDS011;3989;48.810;9.208;2023-06-14T07:04:33;8.55;;;4.95;;
7887;SDS011;3989;48.810;9.208;2023-06-14T07:07:00;4.95;;;4.00;;
7887;SDS011;3989;48.810;9.208;2023-06-14T07:09:27;4.97;;;4.55;;
7887;SDS011;3989;48.810;9.208;2023-06-14T07:11:54;5.05;;;3.67;;
7887;SDS011;3989;48.810;9.208;2023-06-14T07:14:21;4.80;;;4.05;;
7887;SDS011;3989;48.810;9.208;2023-06-14T07:16:48;4.88;;;4.55;;
7887;SDS011;3989;48.810;9.208;2023-06-14T07:19:14;4.50;;;4.20;;
7887;SDS011;3989;48.810;9.208;2023-06-14T07:21:43;5.05;;;4.57;;
7887;SDS011;3989;48.810;9.208;2023-06-14T07:24:10;5.32;;;4.40;;
7887;SDS011;3989;48.810;9.208;2023-06-14T07:26:37;5.45;;;4.90;;
7887;SDS011;3989;48.810;9.208;2023-06-14T07:29:04;7.07;;;4.18;;
7887;SDS011;3989;48.810;9.208;2023-06-14T07:31:30;8.55;;;4.85;;
7887;SDS011;3989;48.810;9.208;2023-06-14T07:33:57;4.97;;;4.55;;
7887;SDS011;3989;48.810;9.208;2023-06-14T07:36:25;4.20;;;4.00;;
7887;SDS011;3989;48.810;9.208;2023-06-14T07:38:53;4.90;;;4.50;;
7887;SDS011;3989;48.810;9.208;2023-06-14T07:41:21;4.68;;;4.28;;
7887;SDS011;3989;48.810;9.208;2023-06-14T07:43:47;5.82;;;4.05;;
7887;SDS011;3989;48.810;9.208;2023-06-14T07:46:14;4.05;;;3.70;;
7887;SDS011;3989;48.810;9.208;2023-06-14T07:48:41;5.95;;;4.47;;
7887;SDS011;3989;48.810;9.208;2023-06-14T07:51:08;4.22;;;3.92;;
7887;SDS011;3989;48.810;9.208;2023-06-14T07:53:36;3.75;;;3.50;;
7887;SDS011;3989;48.810;9.208;2023-06-14T07:56:04;5.82;;;4.15;;
7887;SDS011;3989;48.810;9.208;2023-06-14T07:58:30;6.95;;;4.93;;
7887;SDS011;3989;48.810;9.208;2023-06-14T08:00:57;5.32;;;4.65;;
7887;SDS011;3989;48.810;9.208;2023-06-14T08:03:24;4.57;;;4.18;;
7887;SDS011;3989;48.810;9.208;2023-06-14T08:05:51;5.82;;;4.47;;
7887;SDS011;3989;48.810;9.208;2023-06-14T08:08:18;4.97;;;4.57;;
7887;SDS011;3989;48.810;9.208;2023-06-14T08:10:45;5.15;;;4.65;;
7887;SDS011;3989;48.810;9.208;2023-06-14T08:13:13;5.72;;;3.83;;
7887;SDS011;3989;48.810;9.208;2023-06-14T08:15:40;5.40;;;4.85;;
7887;SDS011;3989;48.810;9.208;2023-06-14T08:18:07;4.90;;;4.47;;
7887;SDS011;3989;48.810;9.208;2023-06-14T08:20:33;7.28;;;4.22;;
7887;SDS011;3989;48.810;9.208;2023-06-14T08:23:02;6.28;;;4.25;;
7887;SDS011;3989;48.810;9.208;2023-06-14T08:25:29;5.65;;;4.13;;
7887;SDS011;3989;48.810;9.208;2023-06-14T08:27:56;5.30;;;4.80;;
7887;SDS011;3989;48.810;9.208;2023-06-14T08:30:27;4.32;;;4.03;;
7887;SDS011;3989;48.810;9.208;2023-06-14T08:32:54;4.60;;;4.20;;
7887;SDS011;3989;48.810;9.208;2023-06-14T08:35:21;4.45;;;4.10;;
7887;SDS011;3989;48.810;9.208;2023-06-14T08:37:48;4.53;;;4.00;;
7887;SDS011;3989;48.810;9.208;2023-06-14T08:40:20;4.68;;;3.88;;
7887;SDS011;3989;48.810;9.208;2023-06-14T08:42:49;3.97;;;3.67;;
7887;SDS011;3989;48.810;9.208;2023-06-14T08:45:17;9.98;;;3.95;;
7887;SDS011;3989;48.810;9.208;2023-06-14T08:47:48;5.30;;;3.83;;
7887;SDS011;3989;48.810;9.208;2023-06-14T08:50:27;4.32;;;4.03;;
7887;SDS011;3989;48.810;9.208;2023-06-14T08:52:57;4.68;;;4.28;;
7887;SDS011;3989;48.810;9.208;2023-06-14T08:55:27;4.60;;;4.15;;
7887;SDS011;3989;48.810;9.208;2023-06-14T08:57:55;4.68;;;4.20;;
7887;SDS011;3989;48.810;9.208;2023-06-14T09:00:24;4.00;;;3.70;;
7887;SDS011;3989;48.810;9.208;2023-06-14T09:02:52;5.63;;;4.38;;
7887;SDS011;3989;48.810;9.208;2023-06-14T09:05:22;4.78;;;4.28;;
7887;SDS011;3989;48.810;9.208;2023-06-14T09:07:50;8.00;;;4.25;;
7887;SDS011;3989;48.810;9.208;2023-06-14T09:10:17;4.45;;;4.15;;
7887;SDS011;3989;48.810;9.208;2023-06-14T09:12:44;4.35;;;3.75;;
7887;SDS011;3989;48.810;9.208;2023-06-14T09:15:15;4.28;;;3.97;;
7887;SDS011;3989;48.810;9.208;2023-06-14T09:17:47;4.20;;;3.88;;
7887;SDS011;3989;48.810;9.208;2023-06-14T09:20:16;7.20;;;4.57;;
7887;SDS011;3989;48.810;9.208;2023-06-14T09:22:43;4.43;;;4.15;;
7887;SDS011;3989;48.810;9.208;2023-06-14T09:25:11;7.28;;;4.00;;
7887;SDS011;3989;48.810;9.208;2023-06-14T09:27:40;7.53;;;4.30;;
7887;SDS011;3989;48.810;9.208;2023-06-14T09:30:08;4.43;;;3.90;;
7887;SDS011;3989;48.810;9.208;2023-06-14T09:32:36;4.88;;;4.05;;
7887;SDS011;3989;48.810;9.208;2023-06-14T09:35:05;4.15;;;3.78;;
7887;SDS011;3989;48.810;9.208;2023-06-14T09:37:34;4.70;;;3.72;;
7887;SDS011;3989;48.810;9.208;2023-06-14T09:40:03;4.15;;;3.78;;
7887;SDS011;3989;48.810;9.208;2023-06-14T09:42:30;4.20;;;3.70;;
7887;SDS011;3989;48.810;9.208;2023-06-14T09:45:00;4.00;;;3.72;;
7887;SDS011;3989;48.810;9.208;2023-06-14T09:47:28;12.82;;;4.20;;
7887;SDS011;3989;48.810;9.208;2023-06-14T09:49:55;4.68;;;4.22;;
7887;SDS011;3989;48.810;9.208;2023-06-14T09:52:22;4.72;;;3.92;;
7887;SDS011;3989;48.810;9.208;2023-06-14T09:54:53;3.83;;;3.53;;
7887;SDS011;3989;48.810;9.208;2023-06-14T09:57:22;5.70;;;3.75;;
7887;SDS011;3989;48.810;9.208;2023-06-14T09:59:52;4.57;;;3.78;;
7887;SDS011;3989;48.810;9.208;2023-06-14T10:02:24;4.22;;;3.47;;
7887;SDS011;3989;48.810;9.208;2023-06-14T10:05:03;3.22;;;3.00;;
7887;SDS011;3989;48.810;9.208;2023-06-14T10:07:32;3.75;;;3.40;;
7887;SDS011;3989;48.810;9.208;2023-06-14T10:10:07;7.43;;;3.90;;
7887;SDS011;3989;48.810;9.208;2023-06-14T10:12:34;6.05;;;3.80;;
7887;SDS011;3989;48.810;9.208;2023-06-14T10:15:01;3.88;;;3.58;;
7887;SDS011;3989;48.810;9.208;2023-06-14T10:17:33;4.80;;;4.22;;
7887;SDS011;3989;48.810;9.208;2023-06-14T10:22:56;4.25;;;3.92;;
7887;SDS011;3989;48.810;9.208;2023-06-14T10:25:28;4.00;;;3.80;;
7887;SDS011;3989;48.810;9.208;2023-06-14T10:28:02;4.60;;;3.90;;
7887;SDS011;3989;48.810;9.208;2023-06-14T10:30:30;3.45;;;3.25;;
7887;SDS011;3989;48.810;9.208;2023-06-14T10:33:03;4.13;;;3.75;;
7887;SDS011;3989;48.810;9.208;2023-06-14T10:35:30;5.18;;;3.92;;
7887;SDS011;3989;48.810;9.208;2023-06-14T10:38:05;3.95;;;3.65;;
7887;SDS011;3989;48.810;9.208;2023-06-14T10:40:36;4.43;;;4.00;;
7887;SDS011;3989;48.810;9.208;2023-06-14T10:43:22;3.85;;;3.55;;
7887;SDS011;3989;48.810;9.208;2023-06-14T10:48:42;3.75;;;3.45;;
7887;SDS011;3989;48.810;9.208;2023-06-14T10:51:16;6.82;;;3.80;;
7887;SDS011;3989;48.810;9.208;2023-06-14T10:53:46;3.60;;;3.28;;
7887;SDS011;3989;48.810;9.208;2023-06-14T10:56:25;4.32;;;3.38;;
7887;SDS011;3989;48.810;9.208;2023-06-14T10:58:53;5.13;;;3.58;;
7887;SDS011;3989;48.810;9.208;2023-06-14T11:01:23;3.97;;;3.67;;
7887;SDS011;3989;48.810;9.208;2023-06-14T11:04:00;3.13;;;2.92;;
7887;SDS011;3989;48.810;9.208;2023-06-14T11:06:39;3.97;;;3.17;;
7887;SDS011;3989;48.810;9.208;2023-06-14T11:09:20;4.28;;;3.53;;
7887;SDS011;3989;48.810;9.208;2023-06-14T11:12:06;5.60;;;3.30;;
7887;SDS011;3989;48.810;9.208;2023-06-14T11:14:36;3.95;;;3.55;;
7887;SDS011;3989;48.810;9.208;2023-06-14T11:17:04;5.20;;;3.80;;
7887;SDS011;3989;48.810;9.208;2023-06-14T11:19:31;3.42;;;3.00;;
7887;SDS011;3989;48.810;9.208;2023-06-14T11:21:58;3.95;;;3.45;;
7887;SDS011;3989;48.810;9.208;2023-06-14T11:24:25;3.67;;;3.38;;
7887;SDS011;3989;48.810;9.208;2023-06-14T11:26:52;3.55;;;3.35;;
7887;SDS011;3989;48.810;9.208;2023-06-14T11:29:23;3.53;;;3.22;;
7887;SDS011;3989;48.810;9.208;2023-06-14T11:31:50;3.80;;;3.30;;
7887;SDS011;3989;48.810;9.208;2023-06-14T11:34:17;3.75;;;3.45;;
7887;SDS011;3989;48.810;9.208;2023-06-14T11:36:45;5.07;;;3.20;;
7887;SDS011;3989;48.810;9.208;2023-06-14T11:39:12;4.38;;;3.17;;
7887;SDS011;3989;48.810;9.208;2023-06-14T11:41:40;3.33;;;3.10;;
7887;SDS011;3989;48.810;9.208;2023-06-14T11:44:08;3.90;;;2.92;;
7887;SDS011;3989;48.810;9.208;2023-06-14T11:46:36;3.97;;;3.05;;
7887;SDS011;3989;48.810;9.208;2023-06-14T11:49:04;4.38;;;3.63;;
7887;SDS011;3989;48.810;9.208;2023-06-14T11:51:32;3.30;;;3.10;;
7887;SDS011;3989;48.810;9.208;2023-06-14T11:53:59;6.07;;;4.47;;
7887;SDS011;3989;48.810;9.208;2023-06-14T11:56:27;3.65;;;3.45;;
7887;SDS011;3989;48.810;9.208;2023-06-14T11:58:54;5.72;;;3.40;;
7887;SDS011;3989;48.810;9.208;2023-06-14T12:01:22;3.58;;;3.28;;
7887;SDS011;3989;48.810;9.208;2023-06-14T12:03:50;4.45;;;3.17;;
7887;SDS011;3989;48.810;9.208;2023-06-14T12:06:25;3.95;;;3.25;;
7887;SDS011;3989;48.810;9.208;2023-06-14T12:08:55;5.63;;;3.03;;
7887;SDS011;3989;48.810;9.208;2023-06-14T12:11:22;4.28;;;3.28;;
7887;SDS011;3989;48.810;9.208;2023-06-14T12:13:49;3.58;;;3.38;;
7887;SDS011;3989;48.810;9.208;2023-06-14T12:16:16;3.38;;;3.20;;
7887;SDS011;3989;48.810;9.208;2023-06-14T12:18:43;4.30;;;3.97;;
7887;SDS011;3989;48.810;9.208;2023-06-14T12:21:12;3.80;;;3.45;;
7887;SDS011;3989;48.810;9.208;2023-06-14T12:23:39;3.45;;;3.25;;
7887;SDS011;3989;48.810;9.208;2023-06-14T12:26:08;3.70;;;3.50;;
7887;SDS011;3989;48.810;9.208;2023-06-14T12:28:35;3.20;;;3.10;;
7887;SDS011;3989;48.810;9.208;2023-06-14T12:31:18;3.30;;;3.00;;
7887;SDS011;3989;48.810;9.208;2023-06-14T12:33:49;3.70;;;3.40;;
7887;SDS011;3989;48.810;9.208;2023-06-14T12:36:26;5.75;;;3.60;;
7887;SDS011;3989;48.810;9.208;2023-06-14T12:38:54;3.45;;;3.25;;
7887;SDS011;3989;48.810;9.208;2023-06-14T12:41:21;7.05;;;3.63;;
7887;SDS011;3989;48.810;9.208;2023-06-14T12:43:51;3.60;;;3.30;;
7887;SDS011;3989;48.810;9.208;2023-06-14T12:46:18;3.58;;;3.38;;
7887;SDS011;3989;48.810;9.208;2023-06-14T12:48:51;4.97;;;3.42;;
7887;SDS011;3989;48.810;9.208;2023-06-14T12:51:23;3.78;;;3.40;;
7887;SDS011;3989;48.810;9.208;2023-06-14T12:53:51;3.65;;;3.45;;
7887;SDS011;3989;48.810;9.208;2023-06-14T12:56:18;3.58;;;3.28;;
7887;SDS011;3989;48.810;9.208;2023-06-14T12:58:44;4.95;;;3.10;;
7887;SDS011;3989;48.810;9.208;2023-06-14T13:01:11;3.95;;;3.42;;
7887;SDS011;3989;48.810;9.208;2023-06-14T13:03:38;3.42;;;3.33;;
7887;SDS011;3989;48.810;9.208;2023-06-14T13:06:04;3.60;;;3.40;;
7887;SDS011;3989;48.810;9.208;2023-06-14T13:08:32;3.55;;;3.25;;
7887;SDS011;3989;48.810;9.208;2023-06-14T13:10:59;3.45;;;3.25;;
7887;SDS011;3989;48.810;9.208;2023-06-14T13:13:26;3.17;;;2.97;;
7887;SDS011;3989;48.810;9.208;2023-06-14T13:15:52;7.25;;;3.22;;
7887;SDS011;3989;48.810;9.208;2023-06-14T13:18:19;3.58;;;3.35;;
7887;SDS011;3989;48.810;9.208;2023-06-14T13:20:46;4.15;;;3.30;;
7887;SDS011;3989;48.810;9.208;2023-06-14T13:23:13;3.33;;;3.13;;
7887;SDS011;3989;48.810;9.208;2023-06-14T13:25:43;3.65;;;3.38;;
7887;SDS011;3989;48.810;9.208;2023-06-14T13:28:10;3.40;;;3.20;;
7887;SDS011;3989;48.810;9.208;2023-06-14T13:30:36;3.22;;;3.03;;
7887;SDS011;3989;48.810;9.208;2023-06-14T13:33:03;3.72;;;3.42;;
7887;SDS011;3989;48.810;9.208;2023-06-14T13:35:29;4.05;;;3.72;;
7887;SDS011;3989;48.810;9.208;2023-06-14T13:37:56;4.10;;;3.58;;
7887;SDS011;3989;48.810;9.208;2023-06-14T13:40:23;3.58;;;3.33;;
7887;SDS011;3989;48.810;9.208;2023-06-14T13:42:51;3.65;;;3.30;;
7887;SDS011;3989;48.810;9.208;2023-06-14T13:45:17;3.33;;;3.03;;
7887;SDS011;3989;48.810;9.208;2023-06-14T13:47:44;3.95;;;3.50;;
7887;SDS011;3989;48.810;9.208;2023-06-14T13:50:13;4.15;;;3.28;;
7887;SDS011;3989;48.810;9.208;2023-06-14T13:52:41;3.30;;;3.00;;
7887;SDS011;3989;48.810;9.208;2023-06-14T13:55:08;6.10;;;3.47;;
7887;SDS011;3989;48.810;9.208;2023-06-14T13:57:35;3.90;;;3.50;;
7887;SDS011;3989;48.810;9.208;2023-06-14T14:00:03;5.93;;;3.22;;
7887;SDS011;3989;48.810;9.208;2023-06-14T14:02:30;4.05;;;3.70;;
7887;SDS011;3989;48.810;9.208;2023-06-14T14:04:57;3.45;;;3.22;;
7887;SDS011;3989;48.810;9.208;2023-06-14T14:07:24;3.28;;;2.95;;
7887;SDS011;3989;48.810;9.208;2023-06-14T14:09:50;3.30;;;3.10;;
7887;SDS011;3989;48.810;9.208;2023-06-14T14:12:18;5.00;;;4.07;;
7887;SDS011;3989;48.810;9.208;2023-06-14T14:14:45;4.53;;;3.60;;
7887;SDS011;3989;48.810;9.208;2023-06-14T14:17:13;3.53;;;3.25;;
7887;SDS011;3989;48.810;9.208;2023-06-14T14:19:40;3.47;;;3.30;;
7887;SDS011;3989;48.810;9.208;2023-06-14T14:22:07;3.90;;;3.50;;
7887;SDS011;3989;48.810;9.208;2023-06-14T14:24:34;5.20;;;3.05;;
7887;SDS011;3989;48.810;9.208;2023-06-14T14:27:00;3.58;;;3.35;;
7887;SDS011;3989;48.810;9.208;2023-06-14T14:29:27;2.97;;;2.70;;
7887;SDS011;3989;48.810;9.208;2023-06-14T14:31:55;7.10;;;3.67;;
7887;SDS011;3989;48.810;9.208;2023-06-14T14:34:23;6.25;;;3.20;;
7887;SDS011;3989;48.810;9.208;2023-06-14T14:36:50;3.97;;;3.58;;
7887;SDS011;3989;48.810;9.208;2023-06-14T14:39:17;3.42;;;3.13;;
7887;SDS011;3989;48.810;9.208;2023-06-14T14:41:44;5.45;;;3.20;;
7887;SDS011;3989;48.810;9.208;2023-06-14T14:44:11;3.50;;;3.20;;
7887;SDS011;3989;48.810;9.208;2023-06-14T14:46:37;4.70;;;3.67;;
7887;SDS011;3989;48.810;9.208;2023-06-14T14:49:04;3.17;;;2.97;;
7887;SDS011;3989;48.810;9.208;2023-06-14T14:51:32;5.47;;;3.50;;
7887;SDS011;3989;48.810;9.208;2023-06-14T14:53:58;3.75;;;3.47;;
7887;SDS011;3989;48.810;9.208;2023-06-14T14:56:25;3.78;;;3.50;;
7887;SDS011;3989;48.810;9.208;2023-06-14T14:58:53;3.85;;;3.55;;
7887;SDS011;3989;48.810;9.208;2023-06-14T15:01:20;3.58;;;3.22;;
7887;SDS011;3989;48.810;9.208;2023-06-14T15:03:47;4.13;;;3.63;;
7887;SDS011;3989;48.810;9.208;2023-06-14T15:06:13;5.95;;;3.35;;
7887;SDS011;3989;48.810;9.208;2023-06-14T15:08:42;3.58;;;3.30;;
7887;SDS011;3989;48.810;9.208;2023-06-14T15:11:08;3.40;;;3.20;;
7887;SDS011;3989;48.810;9.208;2023-06-14T15:13:35;3.03;;;2.92;;
7887;SDS011;3989;48.810;9.208;2023-06-14T15:16:02;3.60;;;3.30;;
7887;SDS011;3989;48.810;9.208;2023-06-14T15:18:29;3.63;;;3.38;;
7887;SDS011;3989;48.810;9.208;2023-06-14T15:20:56;3.90;;;3.47;;
7887;SDS011;3989;48.810;9.208;2023-06-14T15:23:23;4.10;;;3.17;;
7887;SDS011;3989;48.810;9.208;2023-06-14T15:25:51;3.58;;;3.00;;
7887;SDS011;3989;48.810;9.208;2023-06-14T15:28:18;3.42;;;3.10;;